createdAt,value
2023-03-02T00:00:01.702Z,1.3
2023-03-02T00:02:02.941Z,1.3
2023-03-02T00:04:07.638Z,1.3
2023-03-02T00:08:10.320Z,1.2
2023-03-02T00:09:12.586Z,1.3
2023-03-02T00:11:13.886Z,1.3
2023-03-02T00:13:15.249Z,1.3
2023-03-02T00:15:16.629Z,1.3
2023-03-02T00:17:21.281Z,1.2
2023-03-02T00:19:22.592Z,1.2
2023-03-02T00:23:25.225Z,1.2
2023-03-02T00:27:27.856Z,1.2
2023-03-02T00:29:29.153Z,1.2
2023-03-02T00:31:33.734Z,1.1
2023-03-02T00:33:34.992Z,1.1
2023-03-02T00:35:36.417Z,1
2023-03-02T00:37:37.638Z,1
2023-03-02T00:43:41.531Z,0.9
2023-03-02T00:45:46.180Z,0.9
2023-03-02T00:47:47.458Z,0.9
2023-03-02T00:49:48.829Z,1
2023-03-02T00:51:50.178Z,0.9
2023-03-02T00:53:51.541Z,0.8
2023-03-02T00:55:52.969Z,0.8
2023-03-02T00:57:54.296Z,0.9
2023-03-02T01:04:01.768Z,0.9
2023-03-02T01:05:04.142Z,1
2023-03-02T01:13:14.561Z,0.9
2023-03-02T01:21:20.007Z,0.7
2023-03-02T01:23:21.379Z,0.6
2023-03-02T01:25:22.721Z,0.5
2023-03-02T01:27:27.415Z,0.5
2023-03-02T01:33:31.473Z,0.4
2023-03-02T01:35:32.921Z,0.4
2023-03-02T01:37:34.191Z,0.3
2023-03-02T01:39:35.555Z,0.2
2023-03-02T01:43:41.658Z,0.1
2023-03-02T01:45:43.067Z,0.1
2023-03-02T01:47:44.360Z,0
2023-03-02T01:49:45.749Z,0
2023-03-02T01:51:47.079Z,-0.1
2023-03-02T01:53:48.378Z,-0.1
2023-03-02T01:55:53.159Z,-0.1
2023-03-02T01:57:54.489Z,-0.2
2023-03-02T01:59:55.827Z,-0.3
2023-03-02T02:00:58.275Z,-0.4
2023-03-02T02:02:59.505Z,-0.5
2023-03-02T02:05:00.891Z,-0.3
2023-03-02T02:07:02.170Z,-0.5
2023-03-02T02:09:06.897Z,-0.6
2023-03-02T02:11:08.226Z,-0.7
2023-03-02T02:13:09.537Z,-1
2023-03-02T02:15:10.851Z,-1
2023-03-02T02:17:12.178Z,-1
2023-03-02T02:19:13.510Z,-0.9
2023-03-02T02:21:14.817Z,-1.1
2023-03-02T02:23:19.590Z,-1.2
2023-03-02T02:25:20.906Z,-1.2
2023-03-02T02:27:22.219Z,-1.1
2023-03-02T02:29:23.499Z,-1.2
2023-03-02T02:31:24.916Z,-0.8
2023-03-02T02:33:26.118Z,-0.7
2023-03-02T02:35:27.493Z,-0.6
2023-03-02T02:37:32.122Z,-0.7
2023-03-02T02:39:33.449Z,-0.8
2023-03-02T02:41:34.723Z,-0.7
2023-03-02T02:43:36.058Z,-0.7
2023-03-02T02:45:37.415Z,-1
2023-03-02T02:47:38.676Z,-0.8
2023-03-02T02:49:39.987Z,-0.6
2023-03-02T02:51:44.701Z,-0.4
2023-03-02T02:53:45.982Z,-0.4
2023-03-02T02:55:47.324Z,-0.4
2023-03-02T02:58:04.391Z,-0.3
2023-03-02T03:00:05.737Z,-0.4
2023-03-02T03:02:07.027Z,-0.4
2023-03-02T03:04:11.759Z,-0.4
2023-03-02T03:06:13.054Z,-0.5
2023-03-02T03:08:14.369Z,-0.5
2023-03-02T03:10:15.708Z,-0.6
2023-03-02T03:12:16.985Z,-0.7
2023-03-02T03:14:18.374Z,-0.7
2023-03-02T03:16:19.671Z,-0.7
2023-03-02T03:18:24.351Z,-0.8
2023-03-02T03:22:26.964Z,-0.7
2023-03-02T03:24:28.270Z,-0.7
2023-03-02T03:28:30.892Z,-0.9
2023-03-02T03:30:32.243Z,-1
2023-03-02T03:32:36.966Z,-1.1
2023-03-02T03:34:38.254Z,-1
2023-03-02T03:38:40.886Z,-1.1
2023-03-02T03:40:42.179Z,-1.2
2023-03-02T03:42:43.434Z,-1.2
2023-03-02T03:44:44.926Z,-1.1
2023-03-02T03:46:49.437Z,-1.2
2023-03-02T03:48:50.777Z,-1
2023-03-02T03:50:52.058Z,-0.9
2023-03-02T03:51:54.415Z,-0.9
2023-03-02T03:53:55.748Z,-0.9
2023-03-02T03:55:57.026Z,-0.9
2023-03-02T03:57:58.336Z,-0.8
2023-03-02T04:00:03.059Z,-0.7
2023-03-02T04:02:04.352Z,-0.6
2023-03-02T04:04:05.638Z,-0.7
2023-03-02T04:06:06.952Z,-0.7
2023-03-02T04:12:10.898Z,-0.7
2023-03-02T04:16:16.963Z,-0.9
2023-03-02T04:20:19.528Z,-0.9
2023-03-02T04:22:20.831Z,-1
2023-03-02T04:24:22.147Z,-0.9
2023-03-02T04:26:23.434Z,-1.1
2023-03-02T04:28:28.190Z,-1.1
2023-03-02T04:30:29.501Z,-1.1
2023-03-02T04:32:30.935Z,-1.1
2023-03-02T04:34:32.157Z,-1.2
2023-03-02T04:36:33.656Z,-1.2
2023-03-02T04:38:34.741Z,-1.4
2023-03-02T04:40:36.047Z,-1.3
2023-03-02T04:42:40.761Z,-1.2
2023-03-02T04:44:42.074Z,-1.3
2023-03-02T04:46:44.750Z,-1.3
2023-03-02T04:47:45.710Z,-1.4
2023-03-02T04:51:48.317Z,-1.3
2023-03-02T04:53:49.611Z,-1.2
2023-03-02T04:55:54.325Z,-1.2
2023-03-02T04:57:55.620Z,-1.3
2023-03-02T04:59:56.952Z,-1.4
2023-03-02T05:01:58.238Z,-1.3
2023-03-02T05:04:02.447Z,-1.3
2023-03-02T05:06:00.831Z,-1.3
2023-03-02T05:08:02.120Z,-1.3
2023-03-02T05:10:06.848Z,-1.2
2023-03-02T05:12:08.142Z,-1.3
2023-03-02T05:14:09.418Z,-1.3
2023-03-02T05:16:10.784Z,-1.2
2023-03-02T05:18:12.032Z,-1.3
2023-03-02T05:20:13.307Z,-1.3
2023-03-02T05:28:22.035Z,-1.3
2023-03-02T05:30:23.352Z,-1.3
2023-03-02T05:32:24.653Z,-1.3
2023-03-02T05:38:31.938Z,-1.1
2023-03-02T05:40:33.247Z,-1.1
2023-03-02T05:42:34.519Z,-1.1
2023-03-02T05:43:36.865Z,-1.1
2023-03-02T05:45:38.189Z,-1
2023-03-02T05:47:39.510Z,-1
2023-03-02T05:49:40.779Z,-1
2023-03-02T05:51:45.448Z,-1
2023-03-02T05:53:46.774Z,-1
2023-03-02T05:55:48.085Z,-1
2023-03-02T06:03:53.298Z,-1
2023-03-02T06:05:58.985Z,-1.1
2023-03-02T06:08:00.312Z,-1.2
2023-03-02T06:10:01.698Z,-1.2
2023-03-02T06:12:02.928Z,-1.2
2023-03-02T06:14:04.218Z,-1.3
2023-03-02T06:16:05.620Z,-1.3
2023-03-02T06:18:06.829Z,-1.4
2023-03-02T06:20:11.666Z,-1.4
2023-03-02T06:22:12.830Z,-1.5
2023-03-02T06:26:15.432Z,-1.6
2023-03-02T06:28:16.736Z,-1.7
2023-03-02T06:30:18.050Z,-1.7
2023-03-02T06:32:19.421Z,-1.8
2023-03-02T06:34:24.042Z,-1.7
2023-03-02T06:36:25.410Z,-1.6
2023-03-02T06:38:26.606Z,-1.6
2023-03-02T06:42:51.121Z,-1.4
2023-03-02T06:44:52.480Z,-1.2
2023-03-02T06:46:57.119Z,-1.1
2023-03-02T06:48:58.434Z,-1
2023-03-02T06:50:59.720Z,-0.8
2023-03-02T06:53:00.994Z,-0.7
2023-03-02T06:55:02.304Z,-0.6
2023-03-02T06:57:03.547Z,-0.5
2023-03-02T06:59:06.418Z,-0.7
2023-03-02T07:01:11.178Z,-0.9
2023-03-02T07:03:12.400Z,-1
2023-03-02T07:05:13.651Z,-1
2023-03-02T07:07:14.954Z,-1
2023-03-02T07:09:16.233Z,-1
2023-03-02T07:11:17.530Z,-1
2023-03-02T07:13:18.828Z,-1
2023-03-02T07:15:23.571Z,-0.9
2023-03-02T07:17:24.824Z,-0.9
2023-03-02T07:19:26.126Z,-0.9
2023-03-02T07:21:27.415Z,-0.8
2023-03-02T07:23:28.713Z,-0.7
2023-03-02T07:25:29.992Z,-0.7
2023-03-02T07:27:31.321Z,-0.7
2023-03-02T07:29:36.025Z,-0.6
2023-03-02T07:31:37.314Z,-0.6
2023-03-02T07:33:38.545Z,-0.5
2023-03-02T07:34:40.882Z,-0.5
2023-03-02T07:36:42.177Z,-0.5
2023-03-02T07:38:43.460Z,-0.4
2023-03-02T07:42:49.506Z,-0.3
2023-03-02T07:50:54.759Z,-0.2
2023-03-02T07:52:57.217Z,-0.1
2023-03-02T07:54:57.372Z,-0.2
2023-03-02T07:57:02.139Z,-0.1
2023-03-02T08:03:06.176Z,0.3
2023-03-02T08:05:07.393Z,0.5
2023-03-02T08:07:08.685Z,0.5
2023-03-02T08:15:17.378Z,0.4
2023-03-02T08:17:18.696Z,0.3
2023-03-02T08:25:27.426Z,0.5
2023-03-02T08:27:28.767Z,0.5
2023-03-02T08:30:32.485Z,0.6
2023-03-02T08:32:33.904Z,0.7
2023-03-02T08:36:36.521Z,0.7
2023-03-02T08:38:41.272Z,0.8
2023-03-02T08:42:43.940Z,0.9
2023-03-02T08:48:47.971Z,1.1
2023-03-02T08:50:49.309Z,1.3
2023-03-02T08:52:54.072Z,1.2
2023-03-02T08:54:55.457Z,1.2
2023-03-02T08:56:56.768Z,1.4
2023-03-02T08:58:58.109Z,1.5
2023-03-02T09:00:59.486Z,1.4
2023-03-02T09:03:00.815Z,1.5
2023-03-02T09:05:02.488Z,1.8
2023-03-02T09:11:09.526Z,2.1
2023-03-02T09:13:10.806Z,2.1
2023-03-02T09:15:12.152Z,2.3
2023-03-02T09:17:13.428Z,2.1
2023-03-02T09:21:19.400Z,1.9
2023-03-02T09:23:20.758Z,2.3
2023-03-02T09:25:22.081Z,2.1
2023-03-02T09:26:24.463Z,2.4
2023-03-02T09:28:25.810Z,2.3
2023-03-02T09:32:28.480Z,3.3
2023-03-02T09:34:32.993Z,5
2023-03-02T09:38:35.681Z,4.5
2023-03-02T09:44:39.564Z,3.9
2023-03-02T09:46:40.844Z,5
2023-03-02T09:48:45.434Z,6
2023-03-02T09:50:46.734Z,6
2023-03-02T09:52:48.045Z,6.6
2023-03-02T09:54:49.312Z,6.7
2023-03-02T09:56:50.654Z,6.1
2023-03-02T09:58:51.962Z,5.6
2023-03-02T10:00:53.242Z,5.5
2023-03-02T10:03:05.119Z,5.3
2023-03-02T10:04:59.213Z,5.5
2023-03-02T10:07:00.583Z,5.5
2023-03-02T10:09:01.898Z,5.2
2023-03-02T10:11:03.207Z,4.9
2023-03-02T10:13:04.543Z,4.6
2023-03-02T10:17:10.496Z,4.4
2023-03-02T10:19:11.766Z,4.3
2023-03-02T10:21:13.181Z,4.2
2023-03-02T10:23:41.919Z,4.5
2023-03-02T10:25:43.259Z,4.4
2023-03-02T10:27:44.650Z,4.3
2023-03-02T10:29:49.292Z,4.3
2023-03-02T10:31:50.690Z,4.2
2023-03-02T10:33:51.954Z,4.5
2023-03-02T10:35:53.370Z,4.5
2023-03-02T10:37:54.600Z,4.4
2023-03-02T10:48:04.577Z,4.9
2023-03-02T10:54:08.579Z,4.9
2023-03-02T10:56:09.918Z,5.1
2023-03-02T10:58:14.579Z,5
2023-03-02T11:00:15.929Z,5
2023-03-02T11:02:17.309Z,5.2
2023-03-02T11:04:18.651Z,5.5
2023-03-02T11:06:20.017Z,5.7
2023-03-02T11:08:21.325Z,5.8
2023-03-02T11:10:22.747Z,5.5
2023-03-02T11:14:28.685Z,6
2023-03-02T11:16:30.110Z,5.7
2023-03-02T11:17:32.349Z,5.7
2023-03-02T11:19:33.703Z,5.8
2023-03-02T11:21:35.323Z,5.5
2023-03-02T11:23:36.408Z,5.6
2023-03-02T11:25:41.097Z,5.9
2023-03-02T11:27:42.444Z,5.9
2023-03-02T11:29:43.829Z,5.8
2023-03-02T11:31:45.291Z,5.9
2023-03-02T11:33:46.573Z,5.6
2023-03-02T11:37:49.220Z,5.9
2023-03-02T11:39:55.828Z,5.8
2023-03-02T11:41:55.251Z,5.9
2023-03-02T11:43:56.602Z,5.8
2023-03-02T11:45:58.002Z,6.1
2023-03-02T11:48:03.185Z,6.1
2023-03-02T11:50:00.736Z,6.1
2023-03-02T11:52:02.054Z,6
2023-03-02T11:54:06.718Z,6.4
2023-03-02T11:56:08.120Z,6.4
2023-03-02T11:58:09.478Z,6.1
2023-03-02T12:00:10.821Z,6.1
2023-03-02T12:02:12.194Z,6.1
2023-03-02T12:04:13.514Z,6.3
2023-03-02T12:06:14.899Z,6.4
2023-03-02T12:08:19.528Z,6.4
2023-03-02T12:10:20.886Z,6.5
2023-03-02T12:12:22.239Z,6.9
2023-03-02T12:13:24.562Z,6.8
2023-03-02T12:15:25.910Z,6.8
2023-03-02T12:17:27.323Z,6.7
2023-03-02T12:19:28.664Z,6.7
2023-03-02T12:21:33.271Z,6.7
2023-03-02T12:23:34.672Z,6.6
2023-03-02T12:25:35.998Z,6.7
2023-03-02T12:27:37.398Z,6.6
2023-03-02T12:29:38.727Z,6.9
2023-03-02T12:31:40.098Z,7
2023-03-02T12:33:41.443Z,7.1
2023-03-02T12:35:46.197Z,7.5
2023-03-02T12:39:48.837Z,7.5
2023-03-02T12:41:50.204Z,7.7
2023-03-02T12:43:51.629Z,7.6
2023-03-02T12:45:53.029Z,7.6
2023-03-02T12:47:54.386Z,7.7
2023-03-02T12:50:00.506Z,7.6
2023-03-02T12:52:01.981Z,7.6
2023-03-02T12:54:03.268Z,7.5
2023-03-02T12:56:04.664Z,7.6
2023-03-02T12:58:07.917Z,7.5
2023-03-02T13:02:08.880Z,7.7
2023-03-02T13:04:13.383Z,8
2023-03-02T13:06:15.762Z,8
2023-03-02T13:08:16.288Z,8
2023-03-02T13:11:19.782Z,7.9
2023-03-02T13:13:21.212Z,8.1
2023-03-02T13:21:29.929Z,8.1
2023-03-02T13:23:31.307Z,7.9
2023-03-02T13:51:57.124Z,9
2023-03-02T13:53:58.489Z,9.2
2023-03-02T13:55:59.867Z,9.2
2023-03-02T13:58:01.247Z,9.4
2023-03-02T14:00:05.893Z,9.6
2023-03-02T14:02:07.304Z,9.7
2023-03-02T14:04:08.730Z,9.8
2023-03-02T14:06:29.312Z,9.9
2023-03-02T14:08:30.747Z,10
2023-03-02T14:10:32.076Z,10.4
2023-03-02T14:12:36.791Z,10.2
2023-03-02T14:14:38.296Z,10.4
2023-03-02T14:16:39.529Z,10.5
2023-03-02T14:18:40.919Z,10.4
2023-03-02T14:20:42.305Z,10.5
2023-03-02T14:22:43.683Z,10.9
2023-03-02T14:24:45.050Z,10.7
2023-03-02T14:26:49.830Z,10.8
2023-03-02T14:28:59.880Z,10.8
2023-03-02T14:30:52.520Z,11.1
2023-03-02T14:32:53.882Z,11.2
2023-03-02T14:36:56.662Z,11.6
2023-03-02T14:38:58.044Z,11.5
2023-03-02T14:41:02.757Z,11.1
2023-03-02T14:43:04.081Z,11.1
2023-03-02T14:45:05.579Z,10.9
2023-03-02T14:47:06.886Z,10.9
2023-03-02T14:49:08.257Z,11.2
2023-03-02T14:51:09.653Z,11.5
2023-03-02T14:53:11.002Z,10.5
2023-03-02T14:55:15.685Z,10.5
2023-03-02T14:57:17.052Z,10.3
2023-03-02T14:59:19.050Z,10.2
2023-03-02T15:00:20.792Z,10.6
2023-03-02T15:08:29.656Z,10.1
2023-03-02T15:10:31.003Z,10.2
2023-03-02T15:12:32.393Z,10
2023-03-02T15:14:33.744Z,10.2
2023-03-02T15:16:35.238Z,10.3
2023-03-02T15:18:36.530Z,10.1
2023-03-02T15:20:37.897Z,10
2023-03-02T15:22:42.605Z,9.8
2023-03-02T15:24:43.965Z,10.2
2023-03-02T15:26:45.342Z,10.4
2023-03-02T15:28:46.679Z,10.2
2023-03-02T15:30:48.041Z,9.8
2023-03-02T15:32:49.439Z,9.8
2023-03-02T15:34:50.823Z,9.7
2023-03-02T15:36:55.485Z,9.7
2023-03-02T15:38:56.850Z,9.8
2023-03-02T15:40:58.269Z,10
2023-03-02T15:42:59.604Z,9.7
2023-03-02T15:45:01.014Z,10
2023-03-02T15:47:02.507Z,10
2023-03-02T15:51:08.440Z,9.6
2023-03-02T15:53:09.806Z,9.4
2023-03-02T15:55:11.187Z,9.4
2023-03-02T16:02:17.624Z,9.5
2023-03-02T16:04:22.272Z,9.1
2023-03-02T16:08:25.041Z,9.7
2023-03-02T16:10:26.422Z,9.5
2023-03-02T16:12:27.819Z,9.5
2023-03-02T16:14:29.188Z,9.3
2023-03-02T16:20:36.623Z,9.2
2023-03-02T16:22:37.979Z,8.8
2023-03-02T16:24:40.911Z,8.2
2023-03-02T16:26:40.741Z,7.9
2023-03-02T16:28:42.105Z,7.6
2023-03-02T16:30:43.480Z,7.4
2023-03-02T16:32:48.201Z,7.3
2023-03-02T16:34:49.520Z,7.4
2023-03-02T16:36:50.878Z,7.3
2023-03-02T16:38:52.231Z,7.1
2023-03-02T16:40:55.588Z,6.9
2023-03-02T16:42:55.002Z,7
2023-03-02T16:44:56.327Z,7
2023-03-02T16:47:00.976Z,6.6
2023-03-02T16:49:02.346Z,6.5
2023-03-02T16:51:03.716Z,6.4
2023-03-02T16:54:07.388Z,6
2023-03-02T16:56:08.759Z,5.9
2023-03-02T16:58:10.090Z,5.9
2023-03-02T17:00:14.900Z,5.7
2023-03-02T17:02:16.136Z,5.6
2023-03-02T17:04:17.531Z,5.5
2023-03-02T17:06:18.826Z,5.1
2023-03-02T17:08:20.178Z,4.8
2023-03-02T17:10:21.552Z,4.7
2023-03-02T17:12:22.876Z,4.6
2023-03-02T17:14:27.535Z,4.4
2023-03-02T17:16:28.863Z,4.4
2023-03-02T17:18:30.222Z,4.5
2023-03-02T17:20:31.548Z,4.4
2023-03-02T17:22:32.892Z,4.3
2023-03-02T17:24:34.235Z,4.2
2023-03-02T17:26:35.603Z,4.1
2023-03-02T17:28:40.313Z,4.1
2023-03-02T17:30:41.649Z,4.1
2023-03-02T17:34:44.297Z,3.9
2023-03-02T17:40:48.264Z,3.8
2023-03-02T17:49:18.391Z,3.6
2023-03-02T17:51:19.716Z,3.6
2023-03-02T17:53:21.047Z,3.5
2023-03-02T17:55:25.696Z,3.4
2023-03-02T17:57:26.986Z,3.4
2023-03-02T17:59:28.313Z,3.5
2023-03-02T18:03:30.992Z,3.3
2023-03-02T18:07:33.588Z,3.1
2023-03-02T18:09:38.198Z,3.1
2023-03-02T18:11:39.537Z,3
2023-03-02T18:13:40.850Z,3.1
2023-03-02T18:15:42.324Z,3.1
2023-03-02T18:17:43.481Z,3
2023-03-02T18:23:50.733Z,2.7
2023-03-02T18:25:52.033Z,2.6
2023-03-02T18:33:57.278Z,2.3
2023-03-02T18:35:58.611Z,2.3
2023-03-02T18:38:04.880Z,2.2
2023-03-02T18:40:06.026Z,2.1
2023-03-02T18:42:07.371Z,2.2
2023-03-02T18:43:09.726Z,2.2
2023-03-02T18:45:11.077Z,2.1
2023-03-02T18:47:12.338Z,2.1
2023-03-02T18:51:18.289Z,2
2023-03-02T18:53:19.566Z,1.9
2023-03-02T18:55:20.844Z,1.7
2023-03-02T18:57:22.118Z,1.7
2023-03-02T19:01:24.848Z,1.6
2023-03-02T19:03:26.097Z,1.5
2023-03-02T19:05:30.704Z,1.4
2023-03-02T19:07:31.981Z,1.5
2023-03-02T19:09:33.373Z,1.5
2023-03-02T19:11:34.668Z,1.5
2023-03-02T19:13:36.051Z,1.4
2023-03-02T19:15:37.308Z,1.4
2023-03-02T19:17:38.685Z,1.6
2023-03-02T19:19:43.930Z,1.5
2023-03-02T19:25:47.323Z,1.7
2023-03-02T19:29:49.972Z,1.8
2023-03-02T19:31:51.296Z,1.8
2023-03-02T19:33:55.898Z,1.7
2023-03-02T19:35:57.182Z,1.6
2023-03-02T19:37:58.427Z,1.9
2023-03-02T19:41:02.106Z,1.9
2023-03-02T19:43:03.256Z,1.8
2023-03-02T19:45:04.509Z,1.8
2023-03-02T19:47:09.079Z,1.8
2023-03-02T19:49:10.425Z,1.7
2023-03-02T19:51:11.691Z,1.9
2023-03-02T19:55:14.376Z,1.5
2023-03-02T20:03:22.772Z,1.7
2023-03-02T20:05:24.057Z,1.6
2023-03-02T20:11:28.119Z,1.3
2023-03-02T20:13:29.477Z,1.4
2023-03-02T20:15:34.191Z,1.6
2023-03-02T20:21:38.027Z,1.5
2023-03-02T20:23:39.286Z,1.6
2023-03-02T20:27:41.888Z,1.5
2023-03-02T20:29:46.557Z,1.4
2023-03-02T20:31:47.891Z,1.4
2023-03-02T20:33:49.173Z,1.3
2023-03-02T20:34:51.567Z,1.3
2023-03-02T20:40:55.550Z,1.2
2023-03-02T20:43:00.209Z,1
2023-03-02T20:45:01.623Z,1
2023-03-02T20:49:04.246Z,1.2
2023-03-02T20:51:05.866Z,1.2
2023-03-02T20:53:06.936Z,1.1
2023-03-02T20:55:08.291Z,1.1
2023-03-02T20:57:13.032Z,1.1
2023-03-02T20:59:14.402Z,1.1
2023-03-02T21:01:15.799Z,1.2
2023-03-02T21:03:17.107Z,1.3
2023-03-02T21:05:18.480Z,1.3
2023-03-02T21:07:19.823Z,1.2
2023-03-02T21:09:21.159Z,1.3
2023-03-02T21:11:25.895Z,1.2
2023-03-02T21:13:27.231Z,1.2
2023-03-02T21:15:28.481Z,1.3
2023-03-02T21:17:29.770Z,1.2
2023-03-02T21:19:31.112Z,1.1
2023-03-02T21:21:41.090Z,1.2
2023-03-02T21:23:33.832Z,1.1
2023-03-02T21:25:40.554Z,1.2
2023-03-02T21:27:39.923Z,1.2
2023-03-02T21:29:41.298Z,1.1
2023-03-02T21:38:09.592Z,1.1
2023-03-02T21:40:10.923Z,1.1
2023-03-02T21:42:12.546Z,1.2
2023-03-02T21:44:13.650Z,1.1
2023-03-02T21:46:14.994Z,1.1
2023-03-02T21:48:16.348Z,1.1
2023-03-02T21:50:17.693Z,1.3
2023-03-02T21:52:22.427Z,1.1
2023-03-02T21:54:23.772Z,1.1
2023-03-02T21:58:26.470Z,1.1
2023-03-02T22:00:27.838Z,1.1
2023-03-02T22:02:29.355Z,1.1
2023-03-02T22:04:30.528Z,1
2023-03-02T22:06:35.298Z,1
2023-03-02T22:08:36.545Z,1
2023-03-02T22:10:37.903Z,1.1
2023-03-02T22:12:39.225Z,1.1
2023-03-02T22:16:41.929Z,1.2
2023-03-02T22:18:43.274Z,1.1
2023-03-02T22:20:48.042Z,1
2023-03-02T22:22:49.399Z,1
2023-03-02T22:25:53.014Z,1.1
2023-03-02T22:27:54.486Z,1.2
2023-03-02T22:29:55.714Z,1.3
2023-03-02T22:31:57.150Z,1.2
2023-03-02T22:34:01.956Z,1.2
2023-03-02T22:36:03.206Z,1.3
2023-03-02T22:38:04.548Z,1.3
2023-03-02T22:42:07.270Z,1.4
2023-03-02T22:44:08.672Z,1.4
2023-03-02T22:52:17.187Z,1.3
2023-03-02T23:04:28.483Z,1.1
2023-03-02T23:06:29.824Z,1.1
2023-03-02T23:08:31.169Z,1.1
2023-03-02T23:16:39.894Z,1
2023-03-02T23:18:41.170Z,1.1
2023-03-02T23:21:44.793Z,1
2023-03-02T23:23:46.072Z,1.1
2023-03-02T23:25:47.422Z,1.1
2023-03-02T23:27:48.715Z,1.1
2023-03-02T23:31:54.859Z,1.1
2023-03-02T23:33:56.135Z,1.1
2023-03-02T23:35:57.546Z,1.1
2023-03-02T23:37:58.827Z,1.1
2023-03-02T23:40:00.186Z,1.1
2023-03-02T23:42:01.507Z,1.1
2023-03-02T23:44:06.199Z,1.1
2023-03-02T23:46:07.500Z,1
2023-03-02T23:48:08.742Z,1.1
2023-03-02T23:50:10.107Z,1
2023-03-02T23:52:11.359Z,1
2023-03-02T23:54:12.843Z,0.9
2023-03-02T23:56:14.009Z,0.9
2023-03-02T23:58:18.706Z,0.8
